Main page
METAR-TAF:

METAR-TAF

Airports :

Notodden Airport. Tuven

Notodden, Norway

latitude: 59-34N, longitude: 009-13E, elevation: 19 m

Current weather observation

The report was made 26 minutes ago, at 14:20 UTC
Wind 10 kt from the East/Southeast
Temperature 23°C
Humidity 41%
Pressure 1011 hPa
Visibility 10 km or more
no clouds below 1500 m and no cumulonimbus

METAR: ENNO 211420Z 11010KT CAVOK 23/09 Q1011

Time: 16:46 (14:46 UTC)

Forecast

The report was made 5 hours and 0 minutes ago, at 09:46 UTC
Forecast valid from 21 at 09 UTC to 21 at 17 UTC
Wind 10 kt from the East/Southeast
Visibility 10 km or more
no clouds below 1500 m and no cumulonimbus

TAF: ENNO 210946Z 2109/2117 12010KT CAVOK

Weather observations and forecasts of more than 4000 airports (METAR and TAF reports).

The available stations are represented by yellow and red dots on the map.

Hover mouse over dot to see the name of the station.

Then click to see weather observations and forecasts.

To change the map : click on the green buttons with a black cross to zoom in, on the green button with a dash to zoom out, or on the green arrows for adjacent maps.


METAR-TAF: